createdAt,value
2023-04-02T00:00:01.241Z,1000.88
2023-04-02T00:01:01.236Z,1000.91
2023-04-02T00:02:01.280Z,1000.91
2023-04-02T00:03:01.345Z,1000.93
2023-04-02T00:04:01.227Z,1000.94
2023-04-02T00:05:01.194Z,1000.96
2023-04-02T00:06:01.197Z,1000.95
2023-04-02T00:07:01.169Z,1001.02
2023-04-02T00:08:01.169Z,1001.04
2023-04-02T00:09:01.132Z,1001.05
2023-04-02T00:10:01.114Z,1001.08
2023-04-02T00:11:01.135Z,1001.08
2023-04-02T00:12:01.119Z,1001.12
2023-04-02T00:13:01.105Z,1001.13
2023-04-02T00:14:01.096Z,1001.15
2023-04-02T00:15:01.073Z,1001.15
2023-04-02T00:16:01.075Z,1001.21
2023-04-02T00:17:01.072Z,1001.19
2023-04-02T00:18:01.035Z,1001.27
2023-04-02T00:19:01.033Z,1001.26
2023-04-02T00:20:01.021Z,1001.28
2023-04-02T00:21:01.007Z,1001.33
2023-04-02T00:22:01.026Z,1001.33
2023-04-02T00:23:00.981Z,1001.31
2023-04-02T00:24:00.997Z,1001.36
2023-04-02T00:25:00.968Z,1001.35
2023-04-02T00:26:00.951Z,1001.37
2023-04-02T00:27:00.945Z,1001.42
2023-04-02T00:28:00.965Z,1001.43
2023-04-02T00:29:00.930Z,1001.47
2023-04-02T00:30:00.963Z,1001.44
2023-04-02T00:31:00.890Z,1001.44
2023-04-02T00:32:00.886Z,1001.46
2023-04-02T00:33:00.904Z,1001.47
2023-04-02T00:34:00.873Z,1001.50
2023-04-02T00:35:00.875Z,1001.52
2023-04-02T00:36:00.857Z,1001.52
2023-04-02T00:37:00.838Z,1001.55
2023-04-02T00:38:00.854Z,1001.55
2023-04-02T00:39:00.806Z,1001.58
2023-04-02T00:40:00.818Z,1001.56
2023-04-02T00:41:00.772Z,1001.57
2023-04-02T00:42:00.764Z,1001.64
2023-04-02T00:43:00.775Z,1001.63
2023-04-02T00:44:00.766Z,1001.65
2023-04-02T00:45:00.812Z,1001.66
2023-04-02T00:46:00.763Z,1001.63
2023-04-02T00:47:00.770Z,1001.64
2023-04-02T00:48:00.749Z,1001.67
2023-04-02T00:49:00.756Z,1001.67
2023-04-02T00:50:00.683Z,1001.70
2023-04-02T00:51:00.694Z,1001.73
2023-04-02T00:52:00.683Z,1001.73
2023-04-02T00:53:00.674Z,1001.74
2023-04-02T00:54:00.648Z,1001.76
2023-04-02T00:55:00.690Z,1001.77
2023-04-02T00:56:00.629Z,1001.78
2023-04-02T00:57:00.642Z,1001.78
2023-04-02T00:58:00.609Z,1001.78
2023-04-02T00:59:00.570Z,1001.84
2023-04-02T01:00:00.595Z,1001.82
2023-04-02T01:01:00.571Z,1001.80
2023-04-02T01:02:00.547Z,1001.87
2023-04-02T01:03:00.661Z,1001.89
2023-04-02T01:04:00.532Z,1001.90
2023-04-02T01:05:00.507Z,1001.87
2023-04-02T01:06:00.496Z,1001.89
2023-04-02T01:07:00.492Z,1001.91
2023-04-02T01:08:00.509Z,1001.93
2023-04-02T01:09:00.473Z,1001.92
2023-04-02T01:10:00.471Z,1001.95
2023-04-02T01:11:00.438Z,1001.97
2023-04-02T01:12:00.420Z,1001.99
2023-04-02T01:13:00.407Z,1002.06
2023-04-02T01:14:00.430Z,1002.08
2023-04-02T01:15:00.407Z,1002.10
2023-04-02T01:16:00.396Z,1002.14
2023-04-02T01:17:00.375Z,1002.17
2023-04-02T01:18:00.423Z,1002.17
2023-04-02T01:19:00.358Z,1002.14
2023-04-02T01:20:00.355Z,1002.23
2023-04-02T01:21:00.332Z,1002.20
2023-04-02T01:22:00.308Z,1002.20
2023-04-02T01:23:00.330Z,1002.24
2023-04-02T01:24:00.294Z,1002.20
2023-04-02T01:25:00.283Z,1002.26
2023-04-02T01:26:00.299Z,1002.27
2023-04-02T01:27:00.265Z,1002.28
2023-04-02T01:28:00.248Z,1002.25
2023-04-02T01:29:00.250Z,1002.32
2023-04-02T01:30:00.221Z,1002.34
2023-04-02T01:31:00.253Z,1002.31
2023-04-02T01:32:00.208Z,1002.36
2023-04-02T01:33:00.223Z,1002.37
2023-04-02T01:34:00.207Z,1002.40
2023-04-02T01:35:00.176Z,1002.44
2023-04-02T01:36:00.198Z,1002.47
2023-04-02T01:37:00.139Z,1002.44
2023-04-02T01:38:00.149Z,1002.49
2023-04-02T01:39:00.155Z,1002.51
2023-04-02T01:40:00.102Z,1002.52
2023-04-02T01:41:00.131Z,1002.55
2023-04-02T01:42:00.112Z,1002.53
2023-04-02T01:43:00.103Z,1002.55
2023-04-02T01:44:00.090Z,1002.58
2023-04-02T01:45:00.064Z,1002.62
2023-04-02T01:46:00.098Z,1002.62
2023-04-02T01:47:00.021Z,1002.66
2023-04-02T01:48:00.079Z,1002.67
2023-04-02T01:49:00.017Z,1002.70
2023-04-02T01:49:59.993Z,1002.68
2023-04-02T01:50:59.994Z,1002.69
2023-04-02T01:51:59.973Z,1002.73
2023-04-02T01:52:59.968Z,1002.76
2023-04-02T01:53:59.993Z,1002.74
2023-04-02T01:54:59.953Z,1002.77
2023-04-02T01:55:59.950Z,1002.82
2023-04-02T01:56:59.988Z,1002.81
2023-04-02T01:57:59.929Z,1002.82
2023-04-02T01:58:59.902Z,1002.88
2023-04-02T01:59:59.873Z,1002.90
2023-04-02T02:00:59.915Z,1002.90
2023-04-02T02:01:59.865Z,1002.97
2023-04-02T02:02:59.865Z,1002.97
2023-04-02T02:03:59.867Z,1003.01
2023-04-02T02:04:59.822Z,1003.01
2023-04-02T02:05:59.861Z,1003.04
2023-04-02T02:06:59.801Z,1003.04
2023-04-02T02:07:59.783Z,1003.09
2023-04-02T02:08:59.783Z,1003.10
2023-04-02T02:09:59.776Z,1003.09
2023-04-02T02:10:59.746Z,1003.18
2023-04-02T02:11:59.760Z,1003.17
2023-04-02T02:12:59.726Z,1003.25
2023-04-02T02:13:59.764Z,1003.22
2023-04-02T02:14:59.708Z,1003.24
2023-04-02T02:15:59.905Z,1003.26
2023-04-02T02:16:59.698Z,1003.26
2023-04-02T02:17:59.749Z,1003.30
2023-04-02T02:18:59.662Z,1003.29
2023-04-02T02:19:59.653Z,1003.36
2023-04-02T02:20:59.657Z,1003.33
2023-04-02T02:21:59.635Z,1003.39
2023-04-02T02:22:59.619Z,1003.40
2023-04-02T02:23:59.643Z,1003.42
2023-04-02T02:24:59.608Z,1003.43
2023-04-02T02:25:59.673Z,1003.42
2023-04-02T02:26:59.574Z,1003.45
2023-04-02T02:27:59.581Z,1003.51
2023-04-02T02:28:59.580Z,1003.52
2023-04-02T02:29:59.566Z,1003.51
2023-04-02T02:30:59.539Z,1003.55
2023-04-02T02:31:59.540Z,1003.56
2023-04-02T02:32:59.569Z,1003.59
2023-04-02T02:33:59.512Z,1003.65
2023-04-02T02:34:59.522Z,1003.62
2023-04-02T02:35:59.522Z,1003.66
2023-04-02T02:36:59.483Z,1003.71
2023-04-02T02:37:59.448Z,1003.71
2023-04-02T02:38:59.445Z,1003.72
2023-04-02T02:39:59.479Z,1003.78
2023-04-02T02:40:59.426Z,1003.77
2023-04-02T02:41:59.421Z,1003.83
2023-04-02T02:42:59.407Z,1003.85
2023-04-02T02:43:59.389Z,1003.87
2023-04-02T02:44:59.396Z,1003.88
2023-04-02T02:45:59.455Z,1003.92
2023-04-02T02:46:59.355Z,1003.88
2023-04-02T02:47:59.385Z,1003.93
2023-04-02T02:48:59.357Z,1003.97
2023-04-02T02:49:59.354Z,1003.94
2023-04-02T02:50:59.295Z,1004.00
2023-04-02T02:51:59.295Z,1004.00
2023-04-02T02:52:59.297Z,1004.03
2023-04-02T02:53:59.279Z,1004.07
2023-04-02T02:54:59.281Z,1004.03
2023-04-02T02:55:59.260Z,1004.04
2023-04-02T02:56:59.257Z,1004.04
2023-04-02T02:57:59.228Z,1004.08
2023-04-02T02:58:59.220Z,1004.14
2023-04-02T02:59:59.208Z,1004.16
2023-04-02T03:00:59.240Z,1004.19
2023-04-02T03:01:59.218Z,1004.18
2023-04-02T03:02:59.287Z,1004.20
2023-04-02T03:03:59.338Z,1004.22
2023-04-02T03:04:59.141Z,1004.26
2023-04-02T03:05:59.157Z,1004.26
2023-04-02T03:06:59.123Z,1004.27
2023-04-02T03:07:59.131Z,1004.26
2023-04-02T03:08:59.114Z,1004.30
2023-04-02T03:09:59.082Z,1004.31
2023-04-02T03:10:59.090Z,1004.37
2023-04-02T03:11:59.071Z,1004.40
2023-04-02T03:12:59.059Z,1004.44
2023-04-02T03:13:59.049Z,1004.43
2023-04-02T03:14:59.042Z,1004.45
2023-04-02T03:15:59.065Z,1004.45
2023-04-02T03:16:59.014Z,1004.47
2023-04-02T03:17:59.081Z,1004.49
2023-04-02T03:18:58.986Z,1004.50
2023-04-02T03:19:58.972Z,1004.47
2023-04-02T03:20:58.969Z,1004.52
2023-04-02T03:21:58.980Z,1004.58
2023-04-02T03:22:58.935Z,1004.58
2023-04-02T03:23:58.931Z,1004.57
2023-04-02T03:24:58.932Z,1004.58
2023-04-02T03:25:58.920Z,1004.60
2023-04-02T03:26:58.943Z,1004.58
2023-04-02T03:27:58.896Z,1004.63
2023-04-02T03:28:58.867Z,1004.66
2023-04-02T03:29:58.877Z,1004.67
2023-04-02T03:30:58.890Z,1004.72
2023-04-02T03:31:58.856Z,1004.75
2023-04-02T03:32:58.876Z,1004.77
2023-04-02T03:33:58.844Z,1004.80
2023-04-02T03:34:58.803Z,1004.83
2023-04-02T03:35:58.858Z,1004.87
2023-04-02T03:36:58.797Z,1004.93
2023-04-02T03:37:58.802Z,1004.95
2023-04-02T03:38:59.716Z,1004.94
2023-04-02T03:39:58.778Z,1004.99
2023-04-02T03:40:58.739Z,1004.98
2023-04-02T03:41:58.758Z,1005.02
2023-04-02T03:42:58.729Z,1005.03
2023-04-02T03:43:58.704Z,1005.13
2023-04-02T03:44:58.698Z,1005.10
2023-04-02T03:45:58.841Z,1005.15
2023-04-02T03:46:58.684Z,1005.15
2023-04-02T03:47:58.675Z,1005.13
2023-04-02T03:48:58.688Z,1005.13
2023-04-02T03:49:58.688Z,1005.18
2023-04-02T03:50:58.618Z,1005.19
2023-04-02T03:51:58.654Z,1005.21
2023-04-02T03:52:58.617Z,1005.25
2023-04-02T03:53:58.589Z,1005.29
2023-04-02T03:54:58.577Z,1005.23
2023-04-02T03:55:58.566Z,1005.27
2023-04-02T03:56:58.627Z,1005.30
2023-04-02T03:57:58.564Z,1005.34
2023-04-02T03:58:58.542Z,1005.34
2023-04-02T03:59:58.536Z,1005.36
2023-04-02T04:00:58.537Z,1005.38
2023-04-02T04:01:58.542Z,1005.39
2023-04-02T04:02:58.514Z,1005.47
2023-04-02T04:03:58.489Z,1005.45
2023-04-02T04:04:58.460Z,1005.51
2023-04-02T04:05:58.479Z,1005.55
2023-04-02T04:06:58.482Z,1005.57
2023-04-02T04:07:58.445Z,1005.54
2023-04-02T04:08:58.455Z,1005.59
2023-04-02T04:09:58.423Z,1005.61
2023-04-02T04:10:58.438Z,1005.66
2023-04-02T04:11:58.433Z,1005.66
2023-04-02T04:12:58.370Z,1005.72
2023-04-02T04:13:58.372Z,1005.72
2023-04-02T04:14:58.349Z,1005.74
2023-04-02T04:15:58.354Z,1005.79
2023-04-02T04:16:58.404Z,1005.76
2023-04-02T04:17:58.330Z,1005.80
2023-04-02T04:18:58.318Z,1005.84
2023-04-02T04:19:58.318Z,1005.83
2023-04-02T04:20:58.302Z,1005.84
2023-04-02T04:21:58.314Z,1005.89
2023-04-02T04:22:58.270Z,1005.93
2023-04-02T04:23:58.263Z,1005.94
2023-04-02T04:24:58.236Z,1005.97
2023-04-02T04:25:58.230Z,1005.97
2023-04-02T04:26:58.237Z,1005.98
2023-04-02T04:27:58.208Z,1005.99
2023-04-02T04:28:58.229Z,1006.00
2023-04-02T04:29:58.206Z,1006.08
2023-04-02T04:30:58.167Z,1006.14
2023-04-02T04:31:58.230Z,1006.12
2023-04-02T04:32:58.370Z,1006.15
2023-04-02T04:33:58.139Z,1006.18
2023-04-02T04:34:58.148Z,1006.15
2023-04-02T04:35:58.163Z,1006.23
2023-04-02T04:36:58.146Z,1006.25
2023-04-02T04:37:58.135Z,1006.24
2023-04-02T04:38:58.079Z,1006.28
2023-04-02T04:39:58.076Z,1006.30
2023-04-02T04:40:58.056Z,1006.26
2023-04-02T04:41:58.092Z,1006.33
2023-04-02T04:42:58.039Z,1006.33
2023-04-02T04:43:58.040Z,1006.36
2023-04-02T04:44:58.025Z,1006.36
2023-04-02T04:45:58.078Z,1006.40
2023-04-02T04:46:58.009Z,1006.47
2023-04-02T04:47:58.021Z,1006.52
2023-04-02T04:48:57.968Z,1006.54
2023-04-02T04:49:57.963Z,1006.53
2023-04-02T04:50:57.947Z,1006.54
2023-04-02T04:51:57.961Z,1006.56
2023-04-02T04:52:57.951Z,1006.57
2023-04-02T04:53:57.962Z,1006.60
2023-04-02T04:54:57.928Z,1006.63
2023-04-02T04:56:06.089Z,1006.68
2023-04-02T04:56:58.967Z,1006.67
2023-04-02T04:57:57.873Z,1006.71
2023-04-02T04:58:57.856Z,1006.72
2023-04-02T04:59:57.855Z,1006.74
2023-04-02T05:00:57.857Z,1006.78
2023-04-02T05:01:57.896Z,1006.85
2023-04-02T05:02:57.891Z,1006.87
2023-04-02T05:03:57.804Z,1006.89
2023-04-02T05:04:57.820Z,1006.91
2023-04-02T05:05:57.781Z,1006.96
2023-04-02T05:06:57.765Z,1006.96
2023-04-02T05:07:59.079Z,1006.99
2023-04-02T05:08:57.740Z,1007.02
2023-04-02T05:09:57.770Z,1007.00
2023-04-02T05:10:57.733Z,1007.07
2023-04-02T05:11:57.710Z,1007.09
2023-04-02T05:12:57.710Z,1007.12
2023-04-02T05:13:57.709Z,1007.10
2023-04-02T05:14:57.672Z,1007.14
2023-04-02T05:15:59.405Z,1007.12
2023-04-02T05:16:57.651Z,1007.14
2023-04-02T05:17:57.757Z,1007.15
2023-04-02T05:18:57.625Z,1007.21
2023-04-02T05:19:57.618Z,1007.16
2023-04-02T05:20:57.605Z,1007.19
2023-04-02T05:21:57.613Z,1007.23
2023-04-02T05:22:57.593Z,1007.25
2023-04-02T05:23:57.574Z,1007.25
2023-04-02T05:24:57.577Z,1007.31
2023-04-02T05:25:57.585Z,1007.29
2023-04-02T05:26:57.568Z,1007.35
2023-04-02T05:27:57.530Z,1007.37
2023-04-02T05:28:57.532Z,1007.40
2023-04-02T05:29:57.532Z,1007.41
2023-04-02T05:30:57.554Z,1007.45
2023-04-02T05:31:57.502Z,1007.42
2023-04-02T05:32:57.605Z,1007.41
2023-04-02T05:33:57.480Z,1007.54
2023-04-02T05:34:57.459Z,1007.53
2023-04-02T05:35:57.471Z,1007.56
2023-04-02T05:36:57.447Z,1007.54
2023-04-02T05:37:57.419Z,1007.59
2023-04-02T05:38:57.407Z,1007.62
2023-04-02T05:39:57.413Z,1007.61
2023-04-02T05:40:57.387Z,1007.67
2023-04-02T05:41:57.414Z,1007.64
2023-04-02T05:42:57.390Z,1007.69
2023-04-02T05:43:57.364Z,1007.70
2023-04-02T05:44:57.346Z,1007.70
2023-04-02T05:45:57.352Z,1007.73
2023-04-02T05:46:57.408Z,1007.73
2023-04-02T05:47:57.385Z,1007.78
2023-04-02T05:48:57.314Z,1007.84
2023-04-02T05:49:57.290Z,1007.82
2023-04-02T05:50:57.286Z,1007.90
2023-04-02T05:51:57.748Z,1007.90
2023-04-02T05:52:57.283Z,1007.96
2023-04-02T05:53:57.245Z,1008.00
2023-04-02T05:54:57.243Z,1008.01
2023-04-02T05:55:57.251Z,1008.01
2023-04-02T05:56:57.227Z,1008.00
2023-04-02T05:58:21.310Z,1008.06
2023-04-02T05:58:58.354Z,1008.11
2023-04-02T05:59:57.191Z,1008.13
2023-04-02T06:00:57.163Z,1008.16
2023-04-02T06:01:57.218Z,1008.15
2023-04-02T06:02:57.216Z,1008.23
2023-04-02T06:03:57.234Z,1008.22
2023-04-02T06:04:57.164Z,1008.26
2023-04-02T06:05:57.108Z,1008.29
2023-04-02T06:06:57.113Z,1008.27
2023-04-02T06:07:57.092Z,1008.30
2023-04-02T06:08:57.083Z,1008.32
2023-04-02T06:09:57.104Z,1008.36
2023-04-02T06:10:57.051Z,1008.37
2023-04-02T06:11:57.055Z,1008.33
2023-04-02T06:12:57.056Z,1008.40
2023-04-02T06:13:57.055Z,1008.42
2023-04-02T06:14:57.067Z,1008.44
2023-04-02T06:15:56.993Z,1008.45
2023-04-02T06:16:57.099Z,1008.51
2023-04-02T06:17:57.018Z,1008.52
2023-04-02T06:18:56.958Z,1008.57
2023-04-02T06:19:56.967Z,1008.53
2023-04-02T06:20:56.938Z,1008.61
2023-04-02T06:21:56.937Z,1008.61
2023-04-02T06:22:56.925Z,1008.66
2023-04-02T06:23:56.910Z,1008.67
2023-04-02T06:24:56.902Z,1008.69
2023-04-02T06:25:56.914Z,1008.72
2023-04-02T06:26:56.891Z,1008.69
2023-04-02T06:27:56.869Z,1008.75
2023-04-02T06:28:56.849Z,1008.73
2023-04-02T06:29:56.863Z,1008.77
2023-04-02T06:30:56.865Z,1008.76
2023-04-02T06:31:56.821Z,1008.82
2023-04-02T06:32:56.847Z,1008.84
2023-04-02T06:33:56.805Z,1008.87
2023-04-02T06:34:56.796Z,1008.89
2023-04-02T06:35:56.854Z,1008.92
2023-04-02T06:36:56.769Z,1008.94
2023-04-02T06:37:56.746Z,1009.01
2023-04-02T06:38:56.762Z,1009.00
2023-04-02T06:39:56.740Z,1009.01
2023-04-02T06:40:58.738Z,1009.01
2023-04-02T06:41:56.721Z,1009.05
2023-04-02T06:42:56.718Z,1009.08
2023-04-02T06:43:56.711Z,1009.12
2023-04-02T06:44:56.689Z,1009.11
2023-04-02T06:45:56.744Z,1009.14
2023-04-02T06:46:56.656Z,1009.13
2023-04-02T06:47:56.689Z,1009.18
2023-04-02T06:48:56.635Z,1009.22
2023-04-02T06:49:56.615Z,1009.26
2023-04-02T06:50:56.643Z,1009.30
2023-04-02T06:51:56.606Z,1009.33
2023-04-02T06:52:56.588Z,1009.35
2023-04-02T06:53:56.601Z,1009.37
2023-04-02T06:54:56.599Z,1009.39
2023-04-02T06:55:56.546Z,1009.39
2023-04-02T06:56:56.606Z,1009.42
2023-04-02T06:57:56.531Z,1009.46
2023-04-02T06:58:56.530Z,1009.50
2023-04-02T06:59:56.514Z,1009.53
2023-04-02T07:00:56.501Z,1009.55
2023-04-02T07:01:56.594Z,1009.55
2023-04-02T07:02:56.525Z,1009.61
2023-04-02T07:03:56.469Z,1009.61
2023-04-02T07:04:56.499Z,1009.60
2023-04-02T07:05:56.433Z,1009.66
2023-04-02T07:06:56.437Z,1009.70
2023-04-02T07:07:56.436Z,1009.71
2023-04-02T07:08:56.402Z,1009.77
2023-04-02T07:09:56.397Z,1009.76
2023-04-02T07:10:56.398Z,1009.86
2023-04-02T07:11:56.383Z,1009.87
2023-04-02T07:12:56.382Z,1009.90
2023-04-02T07:13:56.347Z,1009.95
2023-04-02T07:14:56.336Z,1009.89
2023-04-02T07:15:56.352Z,1010.00
2023-04-02T07:16:56.339Z,1010.03
2023-04-02T07:17:56.421Z,1010.02
2023-04-02T07:18:56.292Z,1010.07
2023-04-02T07:19:56.275Z,1010.06
2023-04-02T07:20:56.263Z,1010.11
2023-04-02T07:21:56.252Z,1010.10
2023-04-02T07:22:56.273Z,1010.12
2023-04-02T07:23:56.226Z,1010.14
2023-04-02T07:24:56.218Z,1010.17
2023-04-02T07:25:56.207Z,1010.14
2023-04-02T07:26:56.195Z,1010.17
2023-04-02T07:27:56.213Z,1010.21
2023-04-02T07:28:56.189Z,1010.29
2023-04-02T07:29:56.165Z,1010.28
2023-04-02T07:30:56.178Z,1010.30
2023-04-02T07:31:56.211Z,1010.30
2023-04-02T07:32:56.188Z,1010.31
2023-04-02T07:33:56.145Z,1010.39
2023-04-02T07:34:56.115Z,1010.40
2023-04-02T07:35:56.127Z,1010.43
2023-04-02T07:36:56.107Z,1010.46
2023-04-02T07:37:56.067Z,1010.40
2023-04-02T07:38:56.116Z,1010.49
2023-04-02T07:39:56.059Z,1010.54
2023-04-02T07:40:56.059Z,1010.54
2023-04-02T07:41:56.025Z,1010.60
2023-04-02T07:42:56.051Z,1010.58
2023-04-02T07:43:56.002Z,1010.62
2023-04-02T07:44:56.012Z,1010.66
2023-04-02T07:45:55.985Z,1010.66
2023-04-02T07:46:56.047Z,1010.70
2023-04-02T07:47:56.065Z,1010.72
2023-04-02T07:48:55.990Z,1010.71
2023-04-02T07:49:55.962Z,1010.77
2023-04-02T07:50:55.932Z,1010.76
2023-04-02T07:51:55.912Z,1010.82
2023-04-02T07:52:55.933Z,1010.80
2023-04-02T07:53:56.309Z,1010.81
2023-04-02T07:54:55.881Z,1010.84
2023-04-02T07:55:56.798Z,1010.89
2023-04-02T07:56:55.916Z,1010.91
2023-04-02T07:57:55.886Z,1010.96
2023-04-02T07:58:55.863Z,1010.94
2023-04-02T07:59:55.835Z,1010.99
2023-04-02T08:00:55.825Z,1010.97
2023-04-02T08:01:55.845Z,1011.02
2023-04-02T08:02:55.885Z,1010.93
2023-04-02T08:03:55.812Z,1011.00
2023-04-02T08:04:55.779Z,1011.02
2023-04-02T08:05:55.785Z,1011.09
2023-04-02T08:06:55.773Z,1011.05
2023-04-02T08:07:55.737Z,1011.07
2023-04-02T08:08:55.760Z,1011.08
2023-04-02T08:09:55.728Z,1011.12
2023-04-02T08:10:55.704Z,1011.14
2023-04-02T08:11:55.691Z,1011.16
2023-04-02T08:12:55.685Z,1011.21
2023-04-02T08:13:55.668Z,1011.23
2023-04-02T08:14:55.713Z,1011.23
2023-04-02T08:15:55.645Z,1011.26
2023-04-02T08:16:55.747Z,1011.25
2023-04-02T08:17:55.728Z,1011.30
2023-04-02T08:18:55.648Z,1011.31
2023-04-02T08:19:55.608Z,1011.35
2023-04-02T08:20:55.611Z,1011.37
2023-04-02T08:21:55.614Z,1011.41
2023-04-02T08:22:55.586Z,1011.40
2023-04-02T08:23:55.574Z,1011.49
2023-04-02T08:24:55.556Z,1011.48
2023-04-02T08:25:55.549Z,1011.48
2023-04-02T08:26:55.535Z,1011.53
2023-04-02T08:27:55.527Z,1011.55
2023-04-02T08:28:55.522Z,1011.55
2023-04-02T08:29:55.504Z,1011.58
2023-04-02T08:30:55.585Z,1011.63
2023-04-02T08:31:55.487Z,1011.62
2023-04-02T08:32:55.506Z,1011.64
2023-04-02T08:33:55.448Z,1011.63
2023-04-02T08:34:55.484Z,1011.66
2023-04-02T08:35:55.450Z,1011.72
2023-04-02T08:36:55.464Z,1011.70
2023-04-02T08:37:55.468Z,1011.76
2023-04-02T08:38:55.413Z,1011.79
2023-04-02T08:39:55.398Z,1011.80
2023-04-02T08:40:55.376Z,1011.82
2023-04-02T08:41:55.359Z,1011.88
2023-04-02T08:42:55.393Z,1011.90
2023-04-02T08:43:55.364Z,1011.91
2023-04-02T08:44:55.334Z,1011.92
2023-04-02T08:45:55.342Z,1011.92
2023-04-02T08:46:55.325Z,1011.97
2023-04-02T08:47:55.530Z,1012.00
2023-04-02T08:48:55.311Z,1011.99
2023-04-02T08:49:55.278Z,1012.00
2023-04-02T08:50:55.275Z,1012.01
2023-04-02T08:51:55.243Z,1012.07
2023-04-02T08:52:55.279Z,1012.07
2023-04-02T08:53:55.249Z,1012.10
2023-04-02T08:54:55.225Z,1012.08
2023-04-02T08:55:55.215Z,1012.12
2023-04-02T08:56:55.209Z,1012.15
2023-04-02T08:57:55.208Z,1012.20
2023-04-02T08:58:55.178Z,1012.18
2023-04-02T08:59:55.155Z,1012.19
2023-04-02T09:00:55.157Z,1012.22
2023-04-02T09:01:55.211Z,1012.27
2023-04-02T09:02:55.194Z,1012.25
2023-04-02T09:03:55.132Z,1012.25
2023-04-02T09:04:55.146Z,1012.27
2023-04-02T09:05:55.096Z,1012.29
2023-04-02T09:06:55.089Z,1012.32
2023-04-02T09:07:55.059Z,1012.35
2023-04-02T09:08:55.086Z,1012.37
2023-04-02T09:09:55.058Z,1012.35
2023-04-02T09:10:55.044Z,1012.36
2023-04-02T09:11:55.035Z,1012.33
2023-04-02T09:12:55.022Z,1012.37
2023-04-02T09:13:55.025Z,1012.41
2023-04-02T09:14:54.992Z,1012.41
2023-04-02T09:15:55.043Z,1012.41
2023-04-02T09:16:54.982Z,1012.42
2023-04-02T09:17:55.769Z,1012.51
2023-04-02T09:18:54.978Z,1012.49
2023-04-02T09:19:54.991Z,1012.52
2023-04-02T09:20:54.949Z,1012.52
2023-04-02T09:21:54.907Z,1012.54
2023-04-02T09:22:54.912Z,1012.60
2023-04-02T09:23:54.905Z,1012.59
2023-04-02T09:24:54.926Z,1012.61
2023-04-02T09:26:03.680Z,1012.69
2023-04-02T09:26:55.856Z,1012.65
2023-04-02T09:27:54.839Z,1012.67
2023-04-02T09:28:54.851Z,1012.65
2023-04-02T09:29:54.837Z,1012.69
2023-04-02T09:30:54.810Z,1012.74
2023-04-02T09:31:54.858Z,1012.74
2023-04-02T09:32:54.808Z,1012.77
2023-04-02T09:33:54.852Z,1012.81
2023-04-02T09:34:54.786Z,1012.83
2023-04-02T09:35:54.794Z,1012.85
2023-04-02T09:36:54.752Z,1012.88
2023-04-02T09:37:54.731Z,1012.91
2023-04-02T09:38:54.741Z,1012.92
2023-04-02T09:39:54.735Z,1012.99
2023-04-02T09:40:54.727Z,1012.99
2023-04-02T09:42:05.120Z,1012.98
2023-04-02T09:42:55.679Z,1013.04
2023-04-02T09:43:54.675Z,1013.09
2023-04-02T09:44:54.671Z,1013.09
2023-04-02T09:45:54.657Z,1013.11
2023-04-02T09:46:54.664Z,1013.18
2023-04-02T09:47:54.655Z,1013.16
2023-04-02T09:48:54.614Z,1013.17
2023-04-02T09:49:54.610Z,1013.20
2023-04-02T09:50:54.600Z,1013.21
2023-04-02T09:51:54.593Z,1013.25
2023-04-02T09:52:54.570Z,1013.25
2023-04-02T09:53:54.573Z,1013.28
2023-04-02T09:54:54.552Z,1013.30
2023-04-02T09:55:54.576Z,1013.30
2023-04-02T09:56:54.556Z,1013.31
2023-04-02T09:57:54.525Z,1013.33
2023-04-02T09:58:54.509Z,1013.38
2023-04-02T09:59:54.483Z,1013.38
2023-04-02T10:00:54.544Z,1013.44
2023-04-02T10:01:54.476Z,1013.44
2023-04-02T10:02:54.562Z,1013.47
2023-04-02T10:03:54.488Z,1013.47
2023-04-02T10:04:54.449Z,1013.51
2023-04-02T10:05:54.444Z,1013.57
2023-04-02T10:06:54.412Z,1013.54
2023-04-02T10:07:54.403Z,1013.59
2023-04-02T10:08:54.395Z,1013.61
2023-04-02T10:09:54.388Z,1013.65
2023-04-02T10:10:54.365Z,1013.67
2023-04-02T10:11:54.342Z,1013.66
2023-04-02T10:12:54.336Z,1013.66
2023-04-02T10:13:54.356Z,1013.71
2023-04-02T10:14:54.324Z,1013.71
2023-04-02T10:15:54.375Z,1013.76
2023-04-02T10:16:54.371Z,1013.73
2023-04-02T10:17:54.302Z,1013.73
2023-04-02T10:18:54.284Z,1013.79
2023-04-02T10:19:54.285Z,1013.80
2023-04-02T10:20:54.277Z,1013.82
2023-04-02T10:21:54.250Z,1013.83
2023-04-02T10:22:54.244Z,1013.84
2023-04-02T10:23:54.220Z,1013.87
2023-04-02T10:24:54.211Z,1013.89
2023-04-02T10:25:54.223Z,1013.94
2023-04-02T10:26:54.191Z,1013.94
2023-04-02T10:27:54.169Z,1013.96
2023-04-02T10:28:54.175Z,1013.99
2023-04-02T10:29:54.184Z,1014.02
2023-04-02T10:30:54.163Z,1014.00
2023-04-02T10:31:54.148Z,1014.04
2023-04-02T10:32:54.140Z,1014.01
2023-04-02T10:33:54.123Z,1014.09
2023-04-02T10:34:54.107Z,1014.09
2023-04-02T10:35:54.128Z,1014.11
2023-04-02T10:36:54.074Z,1014.11
2023-04-02T10:37:54.078Z,1014.14
2023-04-02T10:38:54.056Z,1014.14
2023-04-02T10:39:54.037Z,1014.18
2023-04-02T10:40:56.465Z,1014.21
2023-04-02T10:41:54.029Z,1014.21
2023-04-02T10:42:54.004Z,1014.21
2023-04-02T10:43:53.990Z,1014.15
2023-04-02T10:44:53.997Z,1014.21
2023-04-02T10:45:54.045Z,1014.23
2023-04-02T10:46:53.978Z,1014.24
2023-04-02T10:47:53.985Z,1014.22
2023-04-02T10:48:53.948Z,1014.22
2023-04-02T10:49:53.939Z,1014.25
2023-04-02T10:50:53.930Z,1014.30
2023-04-02T10:51:53.903Z,1014.30
2023-04-02T10:52:55.492Z,1014.34
2023-04-02T10:53:53.884Z,1014.35
2023-04-02T10:54:53.875Z,1014.38
2023-04-02T10:55:54.834Z,1014.38
2023-04-02T10:56:53.903Z,1014.39
2023-04-02T10:57:53.836Z,1014.40
2023-04-02T10:58:55.606Z,1014.36
2023-04-02T10:59:53.817Z,1014.46
2023-04-02T11:00:53.828Z,1014.46
2023-04-02T11:01:53.906Z,1014.50
2023-04-02T11:02:53.861Z,1014.54
2023-04-02T11:03:54.180Z,1014.52
2023-04-02T11:04:54.372Z,1014.57
2023-04-02T11:05:53.765Z,1014.57
2023-04-02T11:07:03.530Z,1014.58
2023-04-02T11:07:54.740Z,1014.55
2023-04-02T11:08:53.720Z,1014.59
2023-04-02T11:09:53.700Z,1014.60
2023-04-02T11:10:53.721Z,1014.66
2023-04-02T11:11:53.694Z,1014.61
2023-04-02T11:12:53.671Z,1014.66
2023-04-02T11:13:53.662Z,1014.63
2023-04-02T11:14:53.657Z,1014.65
2023-04-02T11:15:53.851Z,1014.67
2023-04-02T11:16:53.636Z,1014.69
2023-04-02T11:17:53.699Z,1014.73
2023-04-02T11:18:53.619Z,1014.73
2023-04-02T11:19:53.612Z,1014.76
2023-04-02T11:20:53.599Z,1014.76
2023-04-02T11:21:59.249Z,1014.75
2023-04-02T11:22:54.565Z,1014.80
2023-04-02T11:23:53.570Z,1014.79
2023-04-02T11:24:53.591Z,1014.78
2023-04-02T11:25:53.522Z,1014.82
2023-04-02T11:26:53.759Z,1014.83
2023-04-02T11:27:53.552Z,1014.85
2023-04-02T11:28:53.487Z,1014.90
2023-04-02T11:29:53.489Z,1014.89
2023-04-02T11:30:53.480Z,1014.92
2023-04-02T11:31:53.491Z,1014.89
2023-04-02T11:32:53.464Z,1014.94
2023-04-02T11:33:53.482Z,1014.92
2023-04-02T11:35:03.445Z,1014.97
2023-04-02T11:35:54.472Z,1015.02
2023-04-02T11:36:53.403Z,1015.03
2023-04-02T11:37:53.403Z,1015.03
2023-04-02T11:38:54.874Z,1014.98
2023-04-02T11:39:53.379Z,1015.04
2023-04-02T11:40:53.379Z,1014.99
2023-04-02T11:41:53.343Z,1015.12
2023-04-02T11:42:53.342Z,1015.12
2023-04-02T11:43:53.328Z,1015.12
2023-04-02T11:44:53.335Z,1015.07
2023-04-02T11:45:53.666Z,1015.13
2023-04-02T11:46:53.336Z,1015.16
2023-04-02T11:47:53.356Z,1015.19
2023-04-02T11:48:53.261Z,1015.18
2023-04-02T11:49:53.323Z,1015.21
2023-04-02T11:50:53.237Z,1015.22
2023-04-02T11:52:05.404Z,1015.19
2023-04-02T11:52:54.228Z,1015.15
2023-04-02T11:53:53.210Z,1015.18
2023-04-02T11:54:53.206Z,1015.14
2023-04-02T11:55:53.194Z,1015.19
2023-04-02T11:56:53.195Z,1015.20
2023-04-02T11:57:53.193Z,1015.23
2023-04-02T11:58:53.159Z,1015.23
2023-04-02T11:59:53.159Z,1015.23
2023-04-02T12:00:53.122Z,1015.22
2023-04-02T12:01:53.132Z,1015.29
2023-04-02T12:02:53.154Z,1015.24
2023-04-02T12:03:53.107Z,1015.28
2023-04-02T12:04:53.166Z,1015.32